Grand Cayman, Cayman Islands

6:55 AM EST on May 22, 2015 (GMT -0500)
Cayman Retreat | | Change Station
CLOSE
Current Station
Personal Weather Station
Location: George Town,
Elevation: 6 ft
Nearby Weather Stations

Elev 6 ft 19.27 °N, 81.39 °W | Updated 52 seconds ago

Partly Cloudy
Partly Cloudy
79.2 °F
Feels Like 83 °F
N
0.0
Wind Variable Wind from SE
Gusts 0.5 mph

Today
High -- | Low -- °F
--% Chance of Precip.
Yesterday
High -- | Low -- °F
Precip. -- in
5:48 AM 6:56 PM
Waxing Crescent, 21% visible
Pressure 30.01 in
Visibility 6.2 miles
Clouds Few 1800 ft
Heat Index 83 °F
Dew Point 76 °F
Humidity 89%
Rainfall 0.00 in
Snow Depth Not available.
UV 0 out of 12
Pollen Not available.
Air Quality Not available.
Flu Activity Not available.
METAR MWCR 221100Z 00000KT 9999 FEW018 26/25 Q1016 NOSIG

More Conditions Fewer Conditions

Pressure 30.01 in
Visibility 6.2 miles
Clouds Few 1800 ft
Heat Index 83 °F
Dew Point 76 °F
Humidity 89%
Rainfall 0.00 in
Snow Depth Not available.
UV 0 out of 12
Pollen Not available.
Air Quality Not available.
Flu Activity Not available.
METAR MWCR 221100Z 00000KT 9999 FEW018 26/25 Q1016 NOSIG

More Conditions Fewer Conditions

10-Day Weather Forecast

Almanac

Astronomy

May. 22, 2015 Rise Set
Actual Time
Civil Twilight
Nautical Twilight
Astronomical Twilight
Moon
Length of Visible Light
Length of Day
Tomorrow will be .
, % of the Moon is Illuminated

Today's Extremes

Country Highs Country Lows

Community

WunderPhotos

Upload Photos

1,823,205 photos uploaded!

WunderBlogs® & News

Nearby

Air Quality

  Air Quality AQ Index Pollutant
Not available.

Snow Depth

Station Depth Elevation

Earthquake Activity

City Distance Mag. Time & Date
Minimum magnitude displayed is 2.5.

Coastal Water Temperatures

Place Temperature

Stations

Nearby Weather Stations

Station Location Temp. Windchill Dew Point Humidity Wind Precip. Elev Updated Type